Time;durP1;ratioP1;P1;durP2;ratioP2;P2;SDS_P1;SDS_P2;PMS_P1;PMS_P2;Temp;Humidity;BMP_temperature;BMP_pressure;BME280_temperature;BME280_humidity;BME280_pressure;Samples;Min_cycle;Max_cycle;Signal;HPM_P1;HPM_P2
2021/10/06 00:02:18;;;;;;;2.97;0.70;;;18.60;96.70;;;;;;5092948;27;20480;-78
2021/10/06 00:04:46;;;;;;;2.28;0.70;;;18.60;96.70;;;;;;5096853;27;20067;-78
2021/10/06 00:07:14;;;;;;;3.00;0.65;;;18.50;96.70;;;;;;5075898;27;20078;-78
2021/10/06 00:09:44;;;;;;;3.60;0.90;;;18.50;96.70;;;;;;5096750;28;20408;-77
2021/10/06 00:12:13;;;;;;;2.45;0.63;;;18.50;96.70;;;;;;5095165;28;20079;-77
2021/10/06 00:14:41;;;;;;;2.10;0.50;;;18.50;96.70;;;;;;5112530;27;20028;-78
2021/10/06 00:17:22;;;;;;;2.38;0.50;;;18.50;96.70;;;;;;5112424;27;20050;-78
2021/10/06 00:19:51;;;;;;;3.15;0.60;;;18.40;96.70;;;;;;5100365;27;20050;-79
2021/10/06 00:22:19;;;;;;;2.58;0.40;;;18.30;96.70;;;;;;5105763;27;20457;-79
2021/10/06 00:24:49;;;;;;;3.22;0.45;;;18.40;96.70;;;;;;5101864;27;20064;-79
2021/10/06 00:27:17;;;;;;;2.95;0.70;;;18.30;96.70;;;;;;5092286;27;20032;-78
2021/10/06 00:29:45;;;;;;;1.92;0.30;;;18.30;96.70;;;;;;5109933;27;20046;-79
2021/10/06 00:32:13;;;;;;;2.08;0.55;;;18.30;96.70;;;;;;5094448;27;20402;-79
2021/10/06 00:34:43;;;;;;;2.80;0.50;;;18.30;96.70;;;;;;5097144;27;20055;-79
2021/10/06 00:37:11;;;;;;;1.83;0.43;;;18.30;96.70;;;;;;5078570;27;20051;-79
2021/10/06 00:39:39;;;;;;;2.35;0.45;;;18.30;96.70;;;;;;5110253;27;20044;-79
2021/10/06 00:42:09;;;;;;;2.35;0.40;;;18.30;96.70;;;;;;5097328;27;20400;-79
2021/10/06 00:44:38;;;;;;;2.80;0.50;;;18.30;96.70;;;;;;5095508;27;20039;-80
2021/10/06 00:47:11;;;;;;;3.53;0.50;;;18.30;96.70;;;;;;5077921;28;20043;-79
2021/10/06 00:49:39;;;;;;;2.38;0.55;;;18.40;96.70;;;;;;5099572;28;20044;-78
2021/10/06 00:52:09;;;;;;;3.28;0.63;;;18.40;96.70;;;;;;5080417;27;20463;-79
2021/10/06 00:54:37;;;;;;;3.45;0.70;;;18.40;96.70;;;;;;5088325;28;20259;-79
2021/10/06 00:57:05;;;;;;;2.80;0.70;;;18.40;96.70;;;;;;5087890;28;20557;-79
2021/10/06 00:59:35;;;;;;;4.07;0.60;;;18.40;96.70;;;;;;5076713;28;20492;-79
2021/10/06 01:02:03;;;;;;;4.05;0.60;;;18.40;96.70;;;;;;5080379;28;20043;-79
2021/10/06 01:04:32;;;;;;;3.10;0.50;;;18.40;96.70;;;;;;5086779;28;20050;-79
2021/10/06 01:07:00;;;;;;;4.40;0.60;;;18.40;96.70;;;;;;5073784;28;20135;-79
2021/10/06 01:09:30;;;;;;;2.90;0.50;;;18.40;96.70;;;;;;5073770;28;20047;-79
2021/10/06 01:11:59;;;;;;;2.90;0.60;;;18.20;96.70;;;;;;5086114;28;20052;-78
2021/10/06 01:14:28;;;;;;;2.90;0.60;;;18.20;96.70;;;;;;5087559;28;20113;-80
2021/10/06 01:16:57;;;;;;;2.95;0.55;;;18.30;96.70;;;;;;5091534;28;20044;-79
2021/10/06 01:19:27;;;;;;;2.97;1.00;;;18.30;96.70;;;;;;5092455;28;20787;-77
2021/10/06 01:21:58;;;;;;;3.53;0.57;;;18.30;96.70;;;;;;5087098;28;20070;-79
2021/10/06 01:24:28;;;;;;;2.15;0.40;;;18.30;96.70;;;;;;5078349;28;20425;-79
2021/10/06 01:26:57;;;;;;;2.70;0.60;;;18.30;96.70;;;;;;5094028;28;20445;-80
2021/10/06 01:29:25;;;;;;;1.42;0.47;;;18.30;96.70;;;;;;5087440;28;20039;-79
2021/10/06 01:31:53;;;;;;;1.40;0.40;;;18.30;96.70;;;;;;5074945;28;20051;-79
2021/10/06 01:34:22;;;;;;;1.27;0.45;;;18.30;96.70;;;;;;5075111;28;20055;-80
2021/10/06 01:36:52;;;;;;;1.77;0.40;;;18.20;96.70;;;;;;5088126;28;20108;-79
2021/10/06 01:39:23;;;;;;;4.25;0.30;;;18.20;96.70;;;;;;5085535;28;20036;-79
2021/10/06 01:41:51;;;;;;;4.25;0.70;;;18.20;96.70;;;;;;5088411;28;20043;-79
2021/10/06 01:44:19;;;;;;;3.75;0.55;;;18.10;96.70;;;;;;5089061;28;20470;-78
2021/10/06 01:46:48;;;;;;;2.85;0.65;;;18.10;96.70;;;;;;5072469;28;20044;-79
2021/10/06 01:49:18;;;;;;;3.05;0.50;;;18.10;96.70;;;;;;5089328;28;20039;-80
2021/10/06 01:51:46;;;;;;;3.55;0.77;;;18.10;96.70;;;;;;5071163;28;20128;-80
2021/10/06 01:54:14;;;;;;;1.95;0.40;;;18.10;96.70;;;;;;5089378;28;20059;-80
2021/10/06 01:56:44;;;;;;;2.47;0.80;;;18.10;96.70;;;;;;5084045;28;20055;-79
2021/10/06 01:59:12;;;;;;;3.05;0.88;;;18.10;96.70;;;;;;5084792;28;20088;-80
2021/10/06 02:01:40;;;;;;;3.50;0.60;;;18.20;96.70;;;;;;5075125;28;20047;-80
2021/10/06 02:04:08;;;;;;;2.58;1.00;;;18.20;96.70;;;;;;5072365;28;20501;-80
2021/10/06 02:06:36;;;;;;;4.72;0.75;;;18.20;96.70;;;;;;5083920;28;20246;-80
2021/10/06 02:09:04;;;;;;;3.70;0.98;;;18.10;96.70;;;;;;5077594;28;20036;-80
2021/10/06 02:11:32;;;;;;;1.50;0.38;;;18.00;96.70;;;;;;5085450;28;20059;-80
2021/10/06 02:14:02;;;;;;;2.88;0.73;;;18.00;96.70;;;;;;5076126;28;20040;-80
2021/10/06 02:16:30;;;;;;;3.88;0.77;;;18.20;96.70;;;;;;5071185;28;20052;-80
2021/10/06 02:18:58;;;;;;;3.38;0.70;;;18.10;96.70;;;;;;5087883;28;20040;-80
2021/10/06 02:21:34;;;;;;;4.20;0.70;;;18.10;96.70;;;;;;5087460;28;20039;-80
2021/10/06 02:24:03;;;;;;;3.70;1.02;;;18.00;96.70;;;;;;5076338;28;20521;-80
2021/10/06 02:26:32;;;;;;;2.45;0.70;;;18.10;96.70;;;;;;5076841;28;20443;-80
2021/10/06 02:29:02;;;;;;;1.77;0.73;;;18.10;96.70;;;;;;5091078;28;20059;-81
2021/10/06 02:31:30;;;;;;;2.95;0.82;;;18.00;96.70;;;;;;5088056;28;20255;-80
2021/10/06 02:33:58;;;;;;;6.60;1.88;;;17.90;96.70;;;;;;5085192;28;20382;-81
2021/10/06 02:36:26;;;;;;;3.95;0.65;;;17.90;96.70;;;;;;5085786;28;20123;-80
2021/10/06 02:38:56;;;;;;;3.03;1.02;;;18.00;96.70;;;;;;5083310;28;20040;-81
2021/10/06 02:41:26;;;;;;;1.73;0.70;;;18.10;96.70;;;;;;5085517;28;20047;-80
2021/10/06 02:43:55;;;;;;;2.53;1.00;;;18.00;96.70;;;;;;5091395;28;20051;-80
2021/10/06 02:46:24;;;;;;;3.50;0.82;;;18.10;96.70;;;;;;5081733;28;20045;-80
2021/10/06 02:48:52;;;;;;;4.03;0.93;;;17.90;96.70;;;;;;5091839;28;20038;-81
2021/10/06 02:51:21;;;;;;;3.22;0.98;;;17.90;96.70;;;;;;5086611;28;20047;-79
2021/10/06 02:53:49;;;;;;;3.72;0.85;;;17.90;96.70;;;;;;5093544;28;20043;-80
2021/10/06 02:56:17;;;;;;;1.95;0.80;;;17.90;96.70;;;;;;5109520;28;20032;-80
2021/10/06 02:58:45;;;;;;;2.92;0.90;;;17.90;96.70;;;;;;5095195;28;20097;-80
2021/10/06 03:01:13;;;;;;;2.58;0.80;;;17.90;96.70;;;;;;5075014;28;20054;-80
2021/10/06 03:03:43;;;;;;;3.25;0.65;;;17.90;96.70;;;;;;5075616;28;20043;-80
2021/10/06 03:06:11;;;;;;;3.78;0.80;;;17.90;96.70;;;;;;5091802;28;20036;-79
2021/10/06 03:08:39;;;;;;;3.40;0.70;;;17.80;96.70;;;;;;5073830;28;20043;-80
2021/10/06 03:11:07;;;;;;;3.40;0.90;;;17.80;96.70;;;;;;5074256;28;20047;-81
2021/10/06 03:13:35;;;;;;;2.92;0.90;;;18.00;96.70;;;;;;5080500;28;20051;-81
2021/10/06 03:16:04;;;;;;;2.90;0.75;;;17.90;96.70;;;;;;5090080;28;20032;-80
2021/10/06 03:18:32;;;;;;;1.95;0.60;;;17.90;96.70;;;;;;5095383;28;20035;-80
2021/10/06 03:21:01;;;;;;;3.03;0.68;;;17.90;96.70;;;;;;5091124;28;20450;-80
2021/10/06 03:23:29;;;;;;;2.47;0.60;;;17.90;96.70;;;;;;5095368;28;20501;-79
2021/10/06 03:25:58;;;;;;;4.82;0.70;;;18.00;96.70;;;;;;5088869;28;20039;-80
2021/10/06 03:28:26;;;;;;;15.60;2.15;;;18.00;96.70;;;;;;5109501;28;20066;-79
2021/10/06 03:30:55;;;;;;;1.60;0.60;;;17.90;96.70;;;;;;5083711;28;20930;-79
2021/10/06 03:33:23;;;;;;;3.78;0.80;;;18.00;96.70;;;;;;5085681;28;20051;-78
2021/10/06 03:35:56;;;;;;;3.17;0.77;;;18.00;96.70;;;;;;5113946;28;20042;-79
2021/10/06 03:38:26;;;;;;;1.10;0.60;;;18.00;96.70;;;;;;5088881;28;20050;-78
2021/10/06 03:40:54;;;;;;;4.15;0.82;;;18.00;96.70;;;;;;5114554;28;20035;-78
2021/10/06 03:43:22;;;;;;;2.97;0.80;;;18.00;96.70;;;;;;5086624;28;20032;-78
2021/10/06 03:45:50;;;;;;;2.97;0.93;;;18.00;96.70;;;;;;5094852;28;20088;-79
2021/10/06 03:48:18;;;;;;;2.55;0.90;;;18.00;96.70;;;;;;5088584;28;20686;-79
2021/10/06 03:50:46;;;;;;;2.08;0.90;;;17.90;96.70;;;;;;5111643;28;20028;-79
2021/10/06 03:53:15;;;;;;;2.55;0.68;;;17.90;96.70;;;;;;5078857;28;20252;-78
2021/10/06 03:55:44;;;;;;;1.75;0.80;;;17.90;96.70;;;;;;5107531;28;20486;-78
2021/10/06 03:58:15;;;;;;;3.65;1.23;;;17.90;96.70;;;;;;5086540;28;20048;-77
2021/10/06 04:00:43;;;;;;;2.13;0.90;;;17.90;96.70;;;;;;5089604;28;20051;-78
2021/10/06 04:03:12;;;;;;;2.30;0.90;;;17.90;96.70;;;;;;5086972;28;20074;-78
2021/10/06 04:05:41;;;;;;;7.45;1.10;;;17.90;96.70;;;;;;5089833;28;20088;-78
2021/10/06 04:08:09;;;;;;;3.70;0.90;;;17.90;96.70;;;;;;5091803;27;20457;-78
2021/10/06 04:10:37;;;;;;;2.97;1.05;;;17.90;96.70;;;;;;5096781;27;20052;-78
2021/10/06 04:13:07;;;;;;;2.33;0.80;;;17.90;96.70;;;;;;5098237;27;20508;-79
2021/10/06 04:15:35;;;;;;;3.38;1.10;;;17.90;96.70;;;;;;5119444;27;20046;-79
2021/10/06 04:18:05;;;;;;;4.88;1.45;;;18.00;96.70;;;;;;5088714;28;20121;-79
2021/10/06 04:20:34;;;;;;;2.83;0.70;;;18.00;96.70;;;;;;5092711;27;20161;-79
2021/10/06 04:23:03;;;;;;;3.60;0.75;;;18.10;96.70;;;;;;5090893;27;20311;-80
2021/10/06 04:25:31;;;;;;;2.60;1.10;;;18.10;96.70;;;;;;5097315;28;20593;-79
2021/10/06 04:27:59;;;;;;;2.60;0.90;;;18.00;96.70;;;;;;5112550;27;20036;-79
2021/10/06 04:30:29;;;;;;;2.85;0.95;;;18.00;96.70;;;;;;5097130;27;20133;-79
2021/10/06 04:32:57;;;;;;;3.38;1.00;;;18.00;96.70;;;;;;5099014;27;20046;-78
2021/10/06 04:35:26;;;;;;;3.78;0.90;;;17.90;96.70;;;;;;5093369;27;20043;-79
2021/10/06 04:37:59;;;;;;;3.25;0.93;;;17.90;96.70;;;;;;5094920;27;20039;-79
2021/10/06 04:40:28;;;;;;;3.72;0.93;;;17.90;96.70;;;;;;5110732;27;20122;-78
2021/10/06 04:42:56;;;;;;;2.53;0.80;;;17.90;96.70;;;;;;5094115;27;20035;-79
2021/10/06 04:45:25;;;;;;;3.08;0.95;;;18.00;96.70;;;;;;5099316;27;20054;-80
2021/10/06 04:47:54;;;;;;;1.98;0.90;;;18.00;96.70;;;;;;5088980;28;20039;-79
2021/10/06 04:50:27;;;;;;;3.30;1.00;;;17.90;96.70;;;;;;5107900;27;20089;-79
2021/10/06 04:52:55;;;;;;;2.95;1.10;;;17.90;96.70;;;;;;5084912;27;20054;-79
2021/10/06 04:55:24;;;;;;;3.58;1.30;;;17.90;96.70;;;;;;5110834;27;20043;-79
2021/10/06 04:57:53;;;;;;;3.30;1.20;;;17.90;96.70;;;;;;5092225;28;20059;-79
2021/10/06 05:00:22;;;;;;;1.80;1.15;;;17.90;96.70;;;;;;5098388;27;20223;-79
2021/10/06 05:02:50;;;;;;;2.03;1.00;;;17.90;96.70;;;;;;5074871;27;20431;-79
2021/10/06 05:05:19;;;;;;;2.67;1.52;;;17.90;96.70;;;;;;5078971;27;20050;-79
2021/10/06 05:07:47;;;;;;;3.85;1.15;;;17.80;96.70;;;;;;5088042;27;20047;-79
2021/10/06 05:10:15;;;;;;;2.90;1.00;;;17.80;96.70;;;;;;5097904;27;20039;-80
2021/10/06 05:12:43;;;;;;;2.60;1.30;;;17.80;96.70;;;;;;5091437;28;20054;-80
2021/10/06 05:15:11;;;;;;;3.67;1.45;;;17.80;96.70;;;;;;5112879;27;20409;-80
2021/10/06 05:17:39;;;;;;;4.47;1.40;;;17.70;96.70;;;;;;5094097;27;20476;-79
2021/10/06 05:20:08;;;;;;;4.28;1.30;;;17.70;96.70;;;;;;5108634;27;20048;-80
2021/10/06 05:22:38;;;;;;;5.38;1.90;;;17.60;96.70;;;;;;5113388;27;20066;-80
2021/10/06 05:25:06;;;;;;;2.63;1.25;;;17.60;96.70;;;;;;5096976;27;20036;-80
2021/10/06 05:27:34;;;;;;;4.60;1.48;;;17.60;96.70;;;;;;5077737;28;20043;-79
2021/10/06 05:30:05;;;;;;;5.70;1.85;;;17.70;96.70;;;;;;5088434;28;20055;-79
2021/10/06 05:32:35;;;;;;;7.28;2.67;;;17.70;96.70;;;;;;5093730;28;20046;-79
2021/10/06 05:35:08;;;;;;;6.90;2.63;;;17.60;96.70;;;;;;5110017;27;20040;-79
2021/10/06 05:37:37;;;;;;;5.57;1.95;;;17.50;96.70;;;;;;5092523;27;20040;-79
2021/10/06 05:40:11;;;;;;;6.63;2.80;;;17.60;96.70;;;;;;5080095;28;20292;-80
2021/10/06 05:42:40;;;;;;;7.53;2.38;;;17.60;96.70;;;;;;5078359;27;20043;-79
2021/10/06 05:45:08;;;;;;;4.53;2.10;;;17.60;96.70;;;;;;5095155;27;20435;-79
2021/10/06 05:47:37;;;;;;;6.22;2.05;;;17.60;96.70;;;;;;5081756;27;20117;-80
2021/10/06 05:50:06;;;;;;;3.90;1.70;;;17.60;96.70;;;;;;5081657;27;20035;-83
2021/10/06 05:52:35;;;;;;;4.03;1.60;;;17.60;96.70;;;;;;5109359;27;20046;-81
2021/10/06 05:55:06;;;;;;;5.78;2.35;;;17.60;96.70;;;;;;5111781;27;20100;-80
2021/10/06 05:57:34;;;;;;;5.97;2.05;;;17.60;96.70;;;;;;5082776;28;20035;-82
2021/10/06 06:00:03;;;;;;;7.38;2.72;;;17.60;96.70;;;;;;5073548;27;20039;-83
2021/10/06 06:02:42;;;;;;;2.90;1.60;;;17.60;96.70;;;;;;5106353;27;20052;-82
2021/10/06 06:05:11;;;;;;;4.70;2.20;;;17.60;96.70;;;;;;5092100;27;20047;-83
2021/10/06 06:07:39;;;;;;;5.60;2.65;;;17.60;96.70;;;;;;5113031;27;20043;-83
2021/10/06 06:10:10;;;;;;;5.38;2.25;;;17.50;96.70;;;;;;5094680;28;20044;-84
2021/10/06 06:12:39;;;;;;;8.80;3.88;;;17.50;96.70;;;;;;5082895;28;20120;-85
2021/10/06 06:15:07;;;;;;;5.45;2.35;;;17.40;96.70;;;;;;5083232;27;20081;-82
2021/10/06 06:17:38;;;;;;;4.47;2.42;;;17.40;96.70;;;;;;5091640;27;20058;-81
2021/10/06 06:20:10;;;;;;;8.48;2.30;;;17.40;96.70;;;;;;5098251;27;20377;-82
2021/10/06 06:22:39;;;;;;;7.97;2.42;;;17.50;96.70;;;;;;5110476;27;20039;-81
2021/10/06 06:25:10;;;;;;;6.10;1.67;;;17.50;96.70;;;;;;5091351;28;20079;-80
2021/10/06 06:27:38;;;;;;;3.97;1.77;;;17.60;96.70;;;;;;5093265;27;20063;-80
2021/10/06 06:30:07;;;;;;;8.60;2.47;;;17.60;96.70;;;;;;5079488;28;20048;-80
2021/10/06 06:32:36;;;;;;;8.23;2.28;;;17.70;96.70;;;;;;5092175;27;20054;-80
2021/10/06 06:35:05;;;;;;;6.85;2.70;;;17.70;96.70;;;;;;5110589;27;20325;-80
2021/10/06 06:37:33;;;;;;;7.93;2.58;;;17.80;96.70;;;;;;5091686;28;20517;-80
2021/10/06 06:40:02;;;;;;;11.45;3.05;;;17.90;96.70;;;;;;5107613;27;20046;-81
2021/10/06 06:42:32;;;;;;;11.52;3.22;;;17.90;96.70;;;;;;5081343;27;20115;-81
2021/10/06 06:45:01;;;;;;;9.52;3.00;;;18.00;96.70;;;;;;5090135;28;20051;-81
2021/10/06 06:47:31;;;;;;;13.68;3.85;;;18.10;96.70;;;;;;5095427;28;20039;-81
2021/10/06 06:50:00;;;;;;;10.57;3.20;;;18.10;96.70;;;;;;5088463;28;20036;-82
2021/10/06 06:52:28;;;;;;;12.30;3.90;;;18.20;96.70;;;;;;5094050;28;20043;-82
2021/10/06 06:54:57;;;;;;;11.55;3.40;;;18.20;96.70;;;;;;5085843;28;20673;-81
2021/10/06 06:57:25;;;;;;;11.70;3.58;;;18.30;96.70;;;;;;5085577;28;20065;-80
2021/10/06 06:59:55;;;;;;;11.23;3.72;;;18.30;96.70;;;;;;5090797;28;20047;-79
2021/10/06 07:02:24;;;;;;;10.10;3.95;;;18.40;96.70;;;;;;5083908;28;20047;-81
2021/10/06 07:04:53;;;;;;;10.23;3.28;;;18.50;96.70;;;;;;5088526;28;20093;-80
2021/10/06 07:07:21;;;;;;;11.02;3.55;;;18.60;96.70;;;;;;5087122;28;20048;-80
2021/10/06 07:09:50;;;;;;;7.38;2.65;;;18.70;96.70;;;;;;5085555;28;20036;-80
2021/10/06 07:12:20;;;;;;;8.15;2.60;;;18.70;96.70;;;;;;5087309;28;20050;-80
2021/10/06 07:14:50;;;;;;;5.32;2.10;;;18.90;96.70;;;;;;5074001;28;20141;-81
2021/10/06 07:17:21;;;;;;;7.70;2.38;;;18.90;96.70;;;;;;5087186;28;20114;-81
2021/10/06 07:19:50;;;;;;;11.27;2.95;;;19.00;96.70;;;;;;5066148;28;20051;-80
2021/10/06 07:22:19;;;;;;;8.38;2.97;;;19.00;96.70;;;;;;5086487;28;20040;-80
2021/10/06 07:24:47;;;;;;;10.00;3.10;;;19.00;96.70;;;;;;5069509;28;20098;-81
2021/10/06 07:27:16;;;;;;;7.50;2.80;;;19.10;96.70;;;;;;5077397;28;20067;-82
2021/10/06 07:29:44;;;;;;;8.75;2.85;;;19.20;96.70;;;;;;5089142;28;20040;-81
2021/10/06 07:32:13;;;;;;;7.90;2.90;;;19.30;96.70;;;;;;5085953;28;20708;-81
2021/10/06 07:34:43;;;;;;;9.07;2.55;;;19.30;96.70;;;;;;5083372;28;20077;-82
2021/10/06 07:37:11;;;;;;;7.60;2.50;;;19.40;96.70;;;;;;5087432;28;20043;-81
2021/10/06 07:39:40;;;;;;;6.90;2.10;;;19.40;96.70;;;;;;5087746;28;20163;-81
2021/10/06 07:42:08;;;;;;;6.30;1.98;;;19.40;96.70;;;;;;5086966;28;20566;-82
2021/10/06 07:44:37;;;;;;;8.63;2.15;;;19.40;96.70;;;;;;5092576;28;20066;-82
2021/10/06 07:47:07;;;;;;;7.40;1.60;;;19.50;96.70;;;;;;5097236;28;20063;-81
2021/10/06 07:49:35;;;;;;;9.75;2.22;;;19.60;96.70;;;;;;5090111;28;20454;-82
2021/10/06 07:52:06;;;;;;;9.00;2.63;;;19.70;96.70;;;;;;5094721;28;20051;-82
2021/10/06 07:54:35;;;;;;;8.38;2.58;;;19.70;96.70;;;;;;5074905;28;20060;-81
2021/10/06 07:57:04;;;;;;;6.70;1.70;;;19.80;96.70;;;;;;5093468;28;20040;-82
2021/10/06 07:59:34;;;;;;;8.25;2.55;;;19.90;96.70;;;;;;5092856;28;20044;-82
2021/10/06 08:02:03;;;;;;;8.57;2.13;;;19.90;96.70;;;;;;5090293;28;20040;-82
2021/10/06 08:04:32;;;;;;;9.18;2.20;;;20.10;96.70;;;;;;5077989;28;20101;-82
2021/10/06 08:07:00;;;;;;;9.93;2.28;;;20.10;96.70;;;;;;5089636;28;20040;-82
2021/10/06 08:09:31;;;;;;;7.25;1.30;;;20.20;96.70;;;;;;5075825;28;20040;-82
2021/10/06 08:11:59;;;;;;;7.13;1.15;;;20.20;96.70;;;;;;5090825;28;20043;-81
2021/10/06 08:14:28;;;;;;;8.93;1.23;;;20.30;96.70;;;;;;5091807;28;20074;-81
2021/10/06 08:16:57;;;;;;;5.15;0.85;;;20.50;96.70;;;;;;5087613;28;20052;-81
2021/10/06 08:19:25;;;;;;;7.10;1.30;;;20.60;96.70;;;;;;5094228;28;20078;-81
2021/10/06 08:21:54;;;;;;;7.10;1.23;;;20.60;96.70;;;;;;5089902;28;20511;-81
2021/10/06 08:24:22;;;;;;;7.50;1.38;;;20.70;96.70;;;;;;5081494;28;20044;-81
2021/10/06 08:26:53;;;;;;;5.35;1.30;;;20.60;96.70;;;;;;5073566;28;20059;-81
2021/10/06 08:29:21;;;;;;;8.13;1.48;;;20.60;96.70;;;;;;5090028;28;20047;-80
2021/10/06 08:31:52;;;;;;;6.65;1.33;;;20.70;96.70;;;;;;5080744;28;20375;-81
2021/10/06 08:34:22;;;;;;;4.45;1.20;;;20.70;96.70;;;;;;5100746;28;20131;-80
2021/10/06 08:36:51;;;;;;;8.90;1.45;;;20.80;96.70;;;;;;5077262;28;20043;-81
2021/10/06 08:39:19;;;;;;;6.13;1.10;;;20.90;96.70;;;;;;5088550;28;20126;-78
2021/10/06 08:41:48;;;;;;;4.95;1.48;;;21.00;96.70;;;;;;5087739;28;20040;-80
2021/10/06 08:44:20;;;;;;;8.13;1.77;;;21.10;96.70;;;;;;5094483;28;20062;-80
2021/10/06 08:46:49;;;;;;;8.82;1.42;;;21.10;96.70;;;;;;5093692;28;20050;-79
2021/10/06 08:49:17;;;;;;;10.65;1.60;;;21.00;96.70;;;;;;5087150;28;20044;-79
2021/10/06 08:51:45;;;;;;;6.10;1.20;;;20.90;96.70;;;;;;5070131;28;20036;-80
2021/10/06 08:54:14;;;;;;;7.90;1.50;;;20.90;96.70;;;;;;5089388;28;20119;-79
2021/10/06 08:56:44;;;;;;;8.00;1.55;;;20.80;96.70;;;;;;5090749;28;20063;-79
2021/10/06 08:59:12;;;;;;;9.57;1.92;;;20.70;96.70;;;;;;5094457;28;20040;-79
2021/10/06 09:01:44;;;;;;;10.98;2.20;;;20.60;96.70;;;;;;5087700;28;20456;-80
2021/10/06 09:04:14;;;;;;;8.77;1.95;;;20.60;96.70;;;;;;5087181;28;20039;-80
2021/10/06 09:06:44;;;;;;;9.40;1.50;;;20.50;96.70;;;;;;5078817;28;20040;-80
2021/10/06 09:09:16;;;;;;;6.10;1.67;;;20.40;96.70;;;;;;5093744;28;20491;-80
2021/10/06 09:11:46;;;;;;;7.97;1.70;;;20.30;96.70;;;;;;5093350;28;20044;-80
2021/10/06 09:14:15;;;;;;;6.30;1.42;;;20.30;96.70;;;;;;5094334;28;20433;-80
2021/10/06 09:16:46;;;;;;;9.88;1.63;;;20.30;96.70;;;;;;5088688;28;20047;-80
2021/10/06 09:19:37;;;;;;;6.68;1.52;;;20.20;96.70;;;;;;5091058;28;20109;-80
2021/10/06 09:22:10;;;;;;;6.13;1.48;;;20.40;96.70;;;;;;5091229;28;20039;-80
2021/10/06 09:24:54;;;;;;;7.75;1.33;;;20.70;96.70;;;;;;5081168;28;20063;-79
2021/10/06 09:27:26;;;;;;;4.35;1.25;;;20.70;96.70;;;;;;5095573;28;20054;-80
2021/10/06 09:29:56;;;;;;;6.90;1.15;;;20.70;96.70;;;;;;5089212;28;20130;-79
2021/10/06 09:32:29;;;;;;;6.47;1.25;;;20.50;96.70;;;;;;5093091;28;20062;-79
2021/10/06 09:35:06;;;;;;;8.32;1.83;;;20.40;96.70;;;;;;5092793;28;20135;-80
2021/10/06 09:37:36;;;;;;;5.43;1.25;;;20.60;96.70;;;;;;5091788;28;20129;-80
2021/10/06 09:40:07;;;;;;;7.28;1.10;;;20.80;96.70;;;;;;5091517;28;20073;-79
2021/10/06 09:42:45;;;;;;;7.05;1.00;;;20.90;96.70;;;;;;5076516;28;20447;-80
2021/10/06 09:45:26;;;;;;;9.15;2.10;;;20.90;96.70;;;;;;5087649;28;20469;-79
2021/10/06 09:48:10;;;;;;;8.15;1.10;;;21.00;96.70;;;;;;5101717;28;20059;-80
2021/10/06 09:50:42;;;;;;;7.10;1.70;;;21.00;96.70;;;;;;5094160;28;20055;-81
2021/10/06 09:53:13;;;;;;;7.05;1.48;;;21.10;96.70;;;;;;5093332;27;20043;-80
2021/10/06 09:55:43;;;;;;;7.07;1.55;;;21.10;96.70;;;;;;5094455;27;20309;-80
2021/10/06 09:58:12;;;;;;;10.45;1.58;;;20.90;96.70;;;;;;5088991;27;20350;-79
2021/10/06 10:00:42;;;;;;;6.68;1.17;;;20.60;96.70;;;;;;5100354;27;20039;-79
2021/10/06 10:03:12;;;;;;;6.28;1.40;;;20.80;96.70;;;;;;5111303;27;20063;-79
2021/10/06 10:05:41;;;;;;;6.97;1.23;;;21.10;96.70;;;;;;5089504;27;20427;-79
2021/10/06 10:08:10;;;;;;;7.75;1.13;;;21.20;96.70;;;;;;5111146;27;20047;-79
2021/10/06 10:10:39;;;;;;;6.35;1.25;;;21.20;96.70;;;;;;5089083;28;20028;-80
2021/10/06 10:13:07;;;;;;;7.22;1.33;;;21.30;96.70;;;;;;5092272;27;20050;-80
2021/10/06 10:15:36;;;;;;;5.80;1.05;;;21.40;96.70;;;;;;5113639;27;20134;-80
2021/10/06 10:18:08;;;;;;;6.97;1.30;;;21.50;96.70;;;;;;5089194;27;20060;-80
2021/10/06 10:20:42;;;;;;;6.90;0.90;;;21.60;96.70;;;;;;5114250;27;20488;-80
2021/10/06 10:23:17;;;;;;;5.50;1.20;;;21.60;96.70;;;;;;5071759;28;20108;-80
2021/10/06 10:25:46;;;;;;;9.88;1.33;;;21.50;96.70;;;;;;5106539;27;20044;-79
2021/10/06 10:28:16;;;;;;;6.60;1.48;;;21.50;96.70;;;;;;5111270;27;20044;-79
2021/10/06 10:31:00;;;;;;;5.15;1.10;;;21.60;96.70;;;;;;5091518;27;20067;-78
2021/10/06 10:33:38;;;;;;;8.13;1.30;;;21.70;96.70;;;;;;5109377;27;20380;-80
2021/10/06 10:36:39;;;;;;;9.73;1.90;;;21.70;96.70;;;;;;5093619;28;20074;-78
2021/10/06 10:39:49;;;;;;;6.63;1.35;;;21.70;96.70;;;;;;5081568;27;20059;-78
2021/10/06 10:42:17;;;;;;;7.80;1.25;;;21.90;96.70;;;;;;5109039;27;20489;-79
2021/10/06 10:44:46;;;;;;;6.15;1.40;;;21.80;96.70;;;;;;5074217;28;20032;-79
2021/10/06 10:47:14;;;;;;;7.30;1.17;;;21.90;96.70;;;;;;5107529;27;20516;-81
2021/10/06 10:49:44;;;;;;;8.85;2.72;;;22.00;96.70;;;;;;5088253;28;20047;-81
2021/10/06 10:52:12;;;;;;;8.95;1.75;;;22.10;96.70;;;;;;5107325;27;20134;-81
2021/10/06 10:54:43;;;;;;;5.43;1.20;;;22.10;96.70;;;;;;5106975;28;20055;-81
2021/10/06 10:57:20;;;;;;;7.65;1.17;;;22.10;96.70;;;;;;5088770;28;20139;-80
2021/10/06 10:59:50;;;;;;;7.35;1.20;;;22.10;96.70;;;;;;5092152;28;20040;-80
2021/10/06 11:02:21;;;;;;;9.30;1.23;;;22.20;96.70;;;;;;5094692;28;20039;-80
2021/10/06 11:04:58;;;;;;;6.70;1.40;;;22.20;96.70;;;;;;5108851;28;20047;-81
2021/10/06 11:07:27;;;;;;;6.13;1.55;;;22.20;96.70;;;;;;5091071;28;20039;-81
2021/10/06 11:09:58;;;;;;;7.45;1.40;;;22.20;96.70;;;;;;5089704;28;20490;-81
2021/10/06 11:12:52;;;;;;;9.45;1.30;;;21.70;96.70;;;;;;5089574;28;20052;-82
2021/10/06 11:15:28;;;;;;;6.28;1.25;;;21.60;96.70;;;;;;5097447;28;20795;-80
2021/10/06 11:18:38;;;;;;;7.57;1.25;;;21.90;96.70;;;;;;5085279;27;20043;-82
2021/10/06 11:21:08;;;;;;;7.38;1.20;;;22.20;96.70;;;;;;5101469;28;20060;-81
2021/10/06 11:23:45;;;;;;;7.13;1.48;;;22.40;96.70;;;;;;5090218;27;20040;-81
2021/10/06 11:26:19;;;;;;;9.80;1.75;;;22.40;96.70;;;;;;5097978;27;20035;-80
2021/10/06 11:28:49;;;;;;;9.15;1.25;;;22.40;96.70;;;;;;5099895;27;20291;-81
2021/10/06 11:31:22;;;;;;;5.93;1.00;;;22.30;96.70;;;;;;5097263;28;20048;-81
2021/10/06 11:33:51;;;;;;;5.18;0.98;;;22.20;96.70;;;;;;5111878;27;20455;-80
2021/10/06 11:36:21;;;;;;;8.60;1.60;;;22.10;96.70;;;;;;5091257;27;20053;-79
2021/10/06 11:39:02;;;;;;;5.22;1.08;;;22.20;96.70;;;;;;5092552;27;20053;-80
2021/10/06 11:41:32;;;;;;;;;;;22.00;96.70;;;;;;5096455;27;20039;-80
2021/10/06 11:44:05;;;;;;;8.07;1.80;;;21.70;96.70;;;;;;5116404;27;19980;-80
2021/10/06 11:46:34;;;;;;;5.68;1.02;;;21.70;96.70;;;;;;5108930;27;20101;-81
2021/10/06 11:49:05;;;;;;;7.40;1.27;;;21.70;96.70;;;;;;5097098;27;20035;-79
2021/10/06 11:51:49;;;;;;;6.13;1.10;;;21.50;96.70;;;;;;5115651;27;20598;-80
2021/10/06 11:54:18;;;;;;;8.95;1.85;;;21.80;96.70;;;;;;5091934;28;20528;-81
2021/10/06 11:56:50;;;;;;;5.90;1.52;;;21.90;96.70;;;;;;5095866;28;20138;-81
2021/10/06 11:59:20;;;;;;;6.90;1.55;;;21.80;96.70;;;;;;5090622;28;20497;-79
2021/10/06 12:01:53;;;;;;;7.28;1.00;;;21.60;96.70;;;;;;5089088;28;20085;-81
2021/10/06 12:04:23;;;;;;;5.13;1.10;;;21.50;96.70;;;;;;5098918;28;20044;-81
2021/10/06 12:06:59;;;;;;;6.15;1.30;;;21.60;96.70;;;;;;5087989;28;20070;-82
2021/10/06 12:09:32;;;;;;;6.10;1.42;;;21.60;96.70;;;;;;5095295;28;20880;-81
2021/10/06 12:12:07;;;;;;;5.90;1.02;;;21.80;96.70;;;;;;5089189;28;20158;-82
2021/10/06 12:14:43;;;;;;;8.90;1.35;;;22.00;96.70;;;;;;5091902;28;20048;-80
2021/10/06 12:17:15;;;;;;;4.28;1.17;;;22.00;96.70;;;;;;5088906;28;20043;-78
2021/10/06 12:19:55;;;;;;;4.10;1.05;;;22.00;96.70;;;;;;5075042;28;20044;-78
2021/10/06 12:22:24;;;;;;;2.75;0.80;;;22.20;96.70;;;;;;5085185;28;20046;-79
2021/10/06 12:24:56;;;;;;;4.78;1.10;;;22.40;96.70;;;;;;5090168;28;20075;-80
2021/10/06 12:27:28;;;;;;;6.18;1.45;;;22.30;96.70;;;;;;5092695;28;20036;-80
2021/10/06 12:30:12;;;;;;;4.45;1.08;;;22.30;96.70;;;;;;5098034;28;20043;-79
2021/10/06 12:32:41;;;;;;;4.90;0.90;;;22.40;96.70;;;;;;5074986;28;20047;-79
2021/10/06 12:35:12;;;;;;;6.07;1.30;;;22.40;96.70;;;;;;5094073;28;20138;-79
2021/10/06 12:37:51;;;;;;;7.28;1.63;;;22.50;96.70;;;;;;5095126;28;20048;-78
2021/10/06 12:40:35;;;;;;;7.38;1.73;;;22.50;96.70;;;;;;5093789;28;20048;-78
2021/10/06 12:43:07;;;;;;;7.00;1.55;;;22.70;96.70;;;;;;5090415;28;20413;-76
2021/10/06 12:45:36;;;;;;;7.38;1.00;;;22.50;96.70;;;;;;5096673;28;20048;-78
2021/10/06 12:48:05;;;;;;;10.32;1.55;;;22.50;96.70;;;;;;5088143;28;20718;-80
2021/10/06 12:50:33;;;;;;;5.18;1.20;;;22.60;96.70;;;;;;5089330;28;20079;-80
2021/10/06 12:53:09;;;;;;;7.80;1.23;;;22.40;96.70;;;;;;5078750;28;20088;-77
2021/10/06 12:55:37;;;;;;;3.22;0.90;;;22.40;96.70;;;;;;5097582;28;20575;-77
2021/10/06 12:58:08;;;;;;;8.95;0.93;;;22.30;96.70;;;;;;5087141;28;20505;-78
2021/10/06 13:00:36;;;;;;;6.13;1.55;;;22.30;96.70;;;;;;5094597;28;20576;-78
2021/10/06 13:03:05;;;;;;;6.07;1.30;;;22.40;96.70;;;;;;5085737;28;20040;-78